Saturday, April 19, 2014
19:36 UTC
  |  Log In   |  Register Free
Airport Search:

Vidalia Regional Airport
(KVDI)

Vidalia Regional Airport Diagram
No Airport Diagram Available

FAA data valid effective April 3, 2014 until May 29, 2014 (unless otherwise noted).

 
 
 
 
 
 
 
 
 
 
 
 
 
 

Current Aviation Weather for Vidalia Regional Airport (KVDI)

The most recent METAR observation for KVDI was updated at: 1855 UTC
METAR Summary (Translated METAR)
KVDI
191855Z AUTO 03010G15KT 7SM BKN007 OVC012 14/13 A2998 RMK AO2 LTG DSNT S AND SW
KTBR
(36.6 nm NE from KVDI)
191855Z AUTO 04007KT 10SM OVC007 15/14 A2997 RMK AO2 T01450142
TAF
No TAF information found within 50 nm of KVDI
  Airport Weather Conditions for KVDI

 Current Weather at VDI
57° F
Overcast
Northeast winds at 11.5 mph
VDI NOAA Radar

Pressure: 29.98 in
Humidity: 94%
Wind: from the Northeast at 11.5 gusting to 17.3 MPH (10 gusting to 15 KT)
Dew Point: 55.4°F
Visibility: 7.00 mi


Airport Weather Forecast for KVDI

Translated METAR and TAF for KVDI
Translated METAR for KVDI (1936 UTC 19 April 2014)
found at http://aviationweather.gov/adds/metars/
 
METAR text: KVDI 191915Z AUTO 02009KT 4SM BR BKN007 OVC014 14/13 A2998 RMK AO2 LTG DSNT SE THRU SW
Conditions at: KVDI (VIDALIA MUNI , GA, US) observed 1915 UTC 19 April 2014
Temperature: 14.0°C (57°F)
Dewpoint: 13.0°C (55°F) [RH = 94%]
Pressure (altimeter): 29.98 inches Hg (1015.3 mb)
Winds: from the NNE (20 degrees) at 10 MPH (9 knots; 4.7 m/s)
Visibility: 4 miles (6 km)
Ceiling: 700 feet AGL
Clouds: broken clouds at 700 feet AGL
overcast cloud deck at 1400 feet AGL
Weather: BR  (mist)
Translated TAF for KVDI

There is no translated TAF available for this airport

Find All Airport Services Find A Hotel Find A Rental Car Find A Golf Course Find A Restaurant $100 Hamburger



FBO's on the Field
FBO Company Facility Photos Services Transportation Aviation Fuel Prices: Prices include tax
Catering Weather Repair Courtesy Rental Type 100LL JetA JetA+ MOGAS 8087
 
Vidalia Regional Airport

This FBO has not yet been rated
FS:Phillips66
Last Updated: Apr-14
Login to update fuel prices
SS:
Contact Vidalia Regional AirportMore FBO Information
 
Add another FBO Facility Photos Catering Weather Repair Courtesy Rental Type 100LL JetA JetA+ MOGAS 8087
Services Transportation Aviation Fuel Prices: Prices include tax


GlobalAir.com Airport Resource Center model-print
model-print
model-print
model-print